Tiempo atmosférico en la estación meteorológica de Albox, Almería (508 m.)



Fecha
DESCASC
Temp. máxima en grados centígrados (hora)
DESCASC
Temp. mínima en grados centígrados (hora)
DESCASC
Temp. media en grados centígrados
DESCASC
Racha de viento máxima en m/sg (hora)
DESCASC
Velocidad máxima media en intervalos de 10 minutos(hora)
DESCASC
Precipitaciones diarias en mm
DESCASC
Precipitaciones de 00:00 a 06:00 en mm
DESCASC
Precipitaciones de 06:00 a 12:00 en mm
DESCASC
Precipitaciones de 12:00 a 18:00 en mm
DESCASC
Precipitaciones de 18:00 a 24:00 en mm
DESCASC
08-12-2019 19 (14:20) 6.8 (02:30) 12.9 13.89 (21:10) 9.72 (21:10) 0 0 0 0 0
07-12-2019 17.4 (15:30) 7 (07:30) 12.2 3.89 (08:30) 3.06 (08:10) 0 0 0 0 0
06-12-2019 14.3 (15:30) 8.4 (04:50) 11.3 6.67 (17:40) 3.89 (17:50) 0 0 0 0 0
05-12-2019 15.1 (13:40) 5.8 (00:00) 10.5 6.11 (13:20) 3.89 (16:30) 0 0 0 0 0
04-12-2019 15.5 (15:40) 7.6 (00:00) 11.5 15 (12:20) 10.83 (12:20) 0.2 0.2 0 0 0
03-12-2019 10.5 (02:10) 7.4 (00:00) 9 17.22 (13:10) 10.28 (12:40) 16.8 6.2 5.6 1.6 3.4
02-12-2019 11.7 (16:10) 9.8 (00:00) 10.8 8.61 (20:40) 5.28 (20:40) 17.4 0 1.4 4.6 11.4
01-12-2019 20.8 (15:00) 10.3 (00:00) 15.5 12.22 (01:40) 8.61 (00:50) 0 0 0 0 0
30-11-2019 21.8 (14:50) 9.6 (00:00) 15.7 10.28 (23:00) 6.39 (23:00) 0 0 0 0 0
29-11-2019 23.1 (15:40) 9.7 (00:00) 16.4 13.61 (09:10) 9.17 (09:50) 0 0 0 0 0
28-11-2019 22.9 (15:10) 10.4 (00:00) 16.6 13.61 (03:40) 8.89 (02:30) 0 0 0 0 0
27-11-2019 20.5 (13:10) 12.4 (00:00) 16.4 16.67 (09:20) 11.94 (00:20) 0 0 0 0 0
26-11-2019 22.9 (15:00) 12.6 (00:00) 17.8 14.72 (23:20) 11.11 (23:20) 0 0 0 0 0
25-11-2019 19.8 (13:00) 10.9 (00:00) 15.3 20 (02:10) 13.89 (02:10) 0 0 0 0 0
24-11-2019 15.5 (16:00) 8.5 (00:00) 12 21.11 (23:59) 14.17 (23:59) 0 0 0 0 0
23-11-2019 14.6 (15:10) 8.2 (00:00) 11.4 29.72 (05:00) 19.72 (05:10) 0.2 0 0.2 0 0
22-11-2019 16.4 (14:00) 9.3 (00:00) 12.8 18.89 (23:59) 13.06 (23:59) 9 0 0.2 0.2 8.6
21-11-2019 16.3 (15:20) 6.8 (00:00) 11.5 8.89 (05:00) 5.83 (05:00) 0 0 0 0 0
20-11-2019 16.8 (14:00) 4 (00:00) 10.4 4.72 (14:40) 3.33 (04:30) 0 0 0 0 0
19-11-2019 17 (15:20) 5 (00:00) 11 8.33 (04:20) 6.67 (04:20) 0 0 0 0 0
18-11-2019 15.4 (13:50) 7.2 (00:00) 11.3 15 (16:20) 10.83 (07:00) 0.8 0.4 0.4 0 0
17-11-2019 15.9 (15:10) 4.4 (00:00) 10.1 15.83 (07:10) 11.67 (07:20) 0 0 0 0 0
16-11-2019 14.9 (14:50) 5.1 (00:00) 10 15.28 (11:20) 11.39 (11:20) 0 0 0 0 0
15-11-2019 12.2 (13:30) 5.6 (00:00) 8.9 22.5 (01:50) 15.83 (04:40) 0 0 0 0 0
14-11-2019 15.7 (14:20) 8.9 (00:00) 12.3 24.17 (15:00) 15.28 (15:00) 0 0 0 0 0
13-11-2019 20.1 (14:40) 11.9 (00:00) 16 23.89 (10:50) 13.61 (13:40) 0 0 0 0 0
12-11-2019 18.7 (15:10) 9.7 (00:00) 14.2 14.44 (10:50) 10.28 (07:30) 0 0 0 0 0

Gráficas

Temp. máximas Temp. mínimas Temp. medias Precipitaciones Rachas de viento máximas Velocidades máximas media en intervalos de 10 minutos

Datos horarios

Fecha y hora oficial Temperatura (ºC) Velocidad del viento (km/h) Dirección del viento Racha (km/h) Dirección de racha Precipitación (mm) Presión (hPa) Tendencia (hPa) Humedad (%)
2019-12-11 23:00:00 10.3 32 Oeste 49 Oeste 0 -- -- 64
2019-12-11 22:00:00 10.5 33 Oeste 57 Oeste 0 -- -- 65
2019-12-11 21:00:00 10.9 38 Oeste 65 Oeste 0 -- -- 64
2019-12-11 20:00:00 11.3 44 Oeste 57 Oeste 0 -- -- 62
2019-12-11 19:00:00 12.2 35 Oeste 59 Sudoeste 0 -- -- 58
2019-12-11 18:00:00 13.8 25 Oeste 51 Oeste 0 -- -- 59
2019-12-11 17:00:00 15.3 27 Oeste 51 Oeste 0 -- -- 38
2019-12-11 16:00:00 15.7 28 Oeste 65 Oeste 0 -- -- 26
2019-12-11 15:00:00 18.2 38 Oeste 69 Oeste 0 -- -- 22
2019-12-11 14:00:00 18.7 48 Oeste 68 Oeste 0 -- -- 22
2019-12-11 13:00:00 19.3 32 Oeste 55 Oeste 0 -- -- 24
2019-12-11 12:00:00 17.9 9 Oeste 41 Oeste 0 -- -- 29
2019-12-11 11:00:00 16.9 31 Oeste 42 Oeste 0 -- -- 28
2019-12-11 10:00:00 14 23 Oeste 32 Oeste 0 -- -- 35
2019-12-11 09:00:00 11 16 Oeste 28 Noroeste 0 -- -- 40
2019-12-11 08:00:00 12 19 Sudoeste 50 Oeste 0 -- -- 40
2019-12-11 07:00:00 11.5 24 Oeste 50 Oeste 0 -- -- 42
2019-12-11 06:00:00 12.4 36 Oeste 53 Oeste 0 -- -- 39
2019-12-11 05:00:00 12.9 33 Oeste 49 Oeste 0 -- -- 38
2019-12-11 04:00:00 10.2 15 Sudoeste 42 Oeste 0 -- -- 44
2019-12-11 03:00:00 9.2 5 Noroeste 10 Noroeste 0 -- -- 44
2019-12-11 02:00:00 8.6 9 Noroeste 13 Noroeste 0 -- -- 43
2019-12-11 01:00:00 9.1 9 Noroeste 13 Noroeste 0 -- -- 44
2019-12-11 00:00:00 9.1 7 Oeste 13 Noroeste 0 -- -- 42
2019-12-10 23:00:00 8.6 10 Noroeste 18 Noroeste 0 -- -- 50
2019-12-10 22:00:00 9.2 10 Noroeste 13 Noroeste 0 -- -- 47
2019-12-10 21:00:00 9.7 7 Noroeste 12 Noroeste 0 -- -- 51
2019-12-10 20:00:00 11.5 9 Noroeste 11 Noroeste 0 -- -- 51
2019-12-10 19:00:00 11.7 8 Norte 13 Nordeste 0 -- -- 58
2019-12-10 18:00:00 16.9 5 Sudoeste 11 Sudoeste 0 -- -- 46
2019-12-10 17:00:00 21.7 7 Sudoeste 13 Sudoeste 0 -- -- 33
2019-12-10 16:00:00 22.8 7 Sudoeste 12 Sudoeste 0 -- -- 26
2019-12-10 15:00:00 22.4 6 Sudoeste 10 Sur 0 -- -- 29
2019-12-10 14:00:00 21.4 5 Sur 13 Sudoeste 0 -- -- 30
2019-12-10 13:00:00 19.9 9 Sudoeste 13 Sudoeste 0 -- -- 38
2019-12-10 12:00:00 17.6 10 Sudoeste 17 Sudoeste 0 -- -- 44
2019-12-10 11:00:00 14.7 4 Sur 10 Sudoeste 0 -- -- 47
2019-12-10 10:00:00 10.2 3 Sudoeste 9 Oeste 0 -- -- 53
2019-12-10 09:00:00 7.4 4 Sudoeste 18 Noroeste 0 -- -- 54
2019-12-10 08:00:00 7.8 2 Oeste 10 Noroeste 0 -- -- 51
2019-12-10 07:00:00 7.4 8 Noroeste 12 Noroeste 0 -- -- 55
2019-12-10 06:00:00 7.3 8 Noroeste 14 Noroeste 0 -- -- 56
2019-12-10 05:00:00 8.4 11 Noroeste 18 Noroeste 0 -- -- 53
2019-12-10 04:00:00 9.2 11 Noroeste 16 Noroeste 0 -- -- 52
2019-12-10 03:00:00 9.6 9 Noroeste 17 Oeste 0 -- -- 51
2019-12-10 02:00:00 11.5 12 Oeste 28 Oeste 0 -- -- 42
2019-12-10 01:00:00 11.4 9 Noroeste 22 Oeste 0 -- -- 43
2019-12-10 00:00:00 11.8 13 Oeste 20 Oeste 0 -- -- 50
2019-12-09 23:00:00 13.1 24 Oeste 37 Oeste 0 -- -- 49
2019-12-09 22:00:00 12.9 8 Sudoeste 37 Oeste 0 -- -- 49
2019-12-09 21:00:00 12.1 18 Oeste 30 Oeste 0 -- -- 53
2019-12-09 20:00:00 12.7 13 Oeste 23 Oeste 0 -- -- 56
2019-12-09 19:00:00 13.9 16 Oeste 28 Oeste 0 -- -- 52
2019-12-09 18:00:00 15.1 5 Oeste 21 Noroeste 0 -- -- 51
2019-12-09 17:00:00 18.1 13 Oeste 23 Sudoeste 0 -- -- 40
2019-12-09 16:00:00 21.2 18 Oeste 26 Oeste 0 -- -- 40
2019-12-09 15:00:00 22.4 14 Oeste 21 Sudoeste 0 -- -- 29
2019-12-09 14:00:00 21.1 11 Sudoeste 25 Sudoeste 0 -- -- 49
2019-12-09 13:00:00 18.9 21 Sudoeste 28 Sudoeste 0 -- -- 55
2019-12-09 12:00:00 18.3 13 Sudoeste 25 Oeste 0 -- -- 57
2019-12-09 11:00:00 14.8 21 Oeste 34 Oeste 0 -- -- 63
2019-12-09 10:00:00 13.3 11 Sudoeste 25 Oeste 0 -- -- 70
2019-12-09 09:00:00 12.4 19 Oeste 45 Oeste 0 -- -- 73
2019-12-09 08:00:00 11.8 30 Oeste 44 Oeste 0 -- -- 75
2019-12-09 07:00:00 12.4 38 Oeste 57 Oeste 0 -- -- 72
2019-12-09 06:00:00 12.7 36 Oeste 50 Oeste 0 -- -- 69
2019-12-09 05:00:00 12.7 40 Oeste 59 Oeste 0 -- -- 66
2019-12-09 04:00:00 13.4 36 Oeste 56 Oeste 0 -- -- 65
2019-12-09 03:00:00 13 34 Oeste 63 Oeste 0 -- -- 65
2019-12-09 02:00:00 13.4 33 Oeste 55 Oeste 0 -- -- 62
2019-12-09 01:00:00 12.8 23 Oeste 46 Oeste 0 -- -- 63
2019-12-09 00:00:00 13.3 28 Oeste 44 Oeste 0 -- -- 61
2019-12-08 23:00:00 13 23 Oeste 45 Oeste 0 -- -- 58
2019-12-08 22:00:00 12.9 27 Oeste 50 Oeste 0 -- -- 52
2019-12-08 21:00:00 13.1 32 Oeste 44 Oeste 0 -- -- 49
2019-12-08 20:00:00 12.6 11 Oeste 21 Oeste 0 -- -- 49
2019-12-08 19:00:00 12.8 8 Sudoeste 14 Sudoeste 0 -- -- 53
2019-12-08 18:00:00 14.4 9 Oeste 36 Sudoeste 0 -- -- 51
2019-12-08 17:00:00 17.6 23 Oeste 32 Oeste 0 -- -- 42
2019-12-08 16:00:00 18.8 19 Oeste 31 Sudoeste 0 -- -- 42
2019-12-08 15:00:00 18.9 21 Sudoeste 32 Sudoeste 0 -- -- 46
2019-12-08 14:00:00 18.7 24 Oeste 31 Sudoeste 0 -- -- 42
2019-12-08 13:00:00 17.5 21 Sudoeste 29 Sudoeste 0 -- -- 48
2019-12-08 12:00:00 16 14 Sudoeste 26 Sudoeste 0 -- -- 55
2019-12-08 11:00:00 13.7 17 Sudoeste 23 Sudoeste 0 -- -- 62
2019-12-08 10:00:00 11 5 Oeste 19 Noroeste 0 -- -- 74
2019-12-08 09:00:00 8.4 13 Noroeste 22 Oeste 0 -- -- 76
2019-12-08 08:00:00 7.7 15 Noroeste 19 Oeste 0 -- -- 79
2019-12-08 07:00:00 7.8 15 Noroeste 19 Oeste 0 -- -- 80
2019-12-08 06:00:00 7.9 11 Noroeste 15 Oeste 0 -- -- 80
2019-12-08 05:00:00 8 9 Noroeste 12 Noroeste 0 -- -- 77
2019-12-08 04:00:00 7.8 10 Noroeste 15 Noroeste 0 -- -- 79
2019-12-08 03:00:00 7.2 7 Noroeste 12 Noroeste 0 -- -- 84
2019-12-08 02:00:00 6.9 8 Noroeste 10 Noroeste 0 -- -- 87
2019-12-08 01:00:00 7.2 5 Noroeste 12 Noroeste 0 -- -- 86
2019-12-08 00:00:00 8 9 Noroeste 11 Noroeste 0 -- -- 87
2019-12-07 23:00:00 7.9 4 Noroeste 12 Norte 0 -- -- 89
2019-12-07 22:00:00 8.4 7 Noroeste 9 Noroeste 0 -- -- 88
2019-12-07 21:00:00 9.8 5 Norte 7 Norte 0 -- -- 84
2019-12-07 20:00:00 10.5 4 Noroeste 6 Noroeste 0 -- -- 83
2019-12-07 19:00:00 11.3 3 Norte 8 Noroeste 0 -- -- 79
2019-12-07 18:00:00 12.9 0 Calma 4 Sudeste 0 -- -- 69
2019-12-07 17:00:00 14.8 4 Sudeste 11 Sur 0 -- -- 62
2019-12-07 16:00:00 17.1 8 Sur 12 Sur 0 -- -- 56
2019-12-07 15:00:00 17 4 Sur 10 Sur 0 -- -- 57
2019-12-07 14:00:00 15.8 4 Sudeste 9 Sur 0 -- -- 59
2019-12-07 13:00:00 14.1 4 Sur 8 Sur 0 -- -- 66
2019-12-07 12:00:00 11.5 3 Oeste 4 Oeste 0 -- -- 74
2019-12-07 11:00:00 9.3 0 Calma 7 Norte 0 -- -- 86
2019-12-07 10:00:00 7.9 4 Norte 9 Noroeste 0 -- -- 86
2019-12-07 09:00:00 7.7 8 Norte 14 Noroeste 0 -- -- 82
2019-12-07 08:00:00 7.1 9 Noroeste 11 Noroeste 0 -- -- 87
2019-12-07 07:00:00 7.3 6 Noroeste 9 Noroeste 0 -- -- 88
2019-12-07 06:00:00 7.5 8 Noroeste 11 Noroeste 0 -- -- 88
2019-12-07 05:00:00 7.4 8 Noroeste 11 Noroeste 0 -- -- 88
2019-12-07 04:00:00 8.3 9 Noroeste 13 Noroeste 0 -- -- 84
2019-12-07 03:00:00 8 9 Noroeste 11 Noroeste 0 -- -- 87
2019-12-07 02:00:00 8.5 5 Norte 7 Norte 0 -- -- 85
2019-12-07 01:00:00 9.8 4 Noroeste 9 Noroeste 0 -- -- 82
2019-12-07 00:00:00 9.7 5 Noroeste 8 Noroeste 0 -- -- 88
2019-12-06 23:00:00 9.8 4 Oeste 8 Oeste 0 -- -- 88
2019-12-06 22:00:00 10.2 5 Oeste 8 Oeste 0 -- -- 87
2019-12-06 21:00:00 11 2 Oeste 9 Nordeste 0 -- -- 83
2019-12-06 20:00:00 11.2 0 Calma 20 Nordeste 0 -- -- 82
2019-12-06 19:00:00 11.5 13 Nordeste 22 Este 0 -- -- 82
2019-12-06 18:00:00 12 13 Este 24 Este 0 -- -- 80
2019-12-06 17:00:00 13.4 7 Este 14 Nordeste 0 -- -- 69
2019-12-06 16:00:00 14.1 7 Este 15 Este 0 -- -- 68
2019-12-06 15:00:00 14.1 6 Este 18 Nordeste 0 -- -- 70
2019-12-06 14:00:00 13.8 6 Nordeste 15 Nordeste 0 -- -- 70
2019-12-06 13:00:00 12.9 9 Nordeste 19 Nordeste 0 -- -- 74
2019-12-06 12:00:00 11.9 10 Nordeste 18 Nordeste 0 -- -- 81
2019-12-06 11:00:00 10.9 4 Sur 9 Norte 0 -- -- 87
2019-12-06 10:00:00 10.5 8 Nordeste 15 Nordeste 0 -- -- 86
2019-12-06 09:00:00 9.7 4 Norte -- -- 0 -- -- 86
2019-12-06 08:00:00 9.3 0 Calma 8 Norte 0 -- -- 87
2019-12-06 07:00:00 9 5 Nordeste 7 Nordeste 0 -- -- 87
2019-12-06 06:00:00 8.7 4 Noroeste 6 Noroeste 0 -- -- 87
2019-12-06 05:00:00 8.4 3 Noroeste 7 Norte 0 -- -- 89
2019-12-06 04:00:00 9.2 3 Noroeste 7 Oeste 0 -- -- 88
2019-12-06 03:00:00 9.5 3 Oeste 6 Oeste 0 -- -- 88
2019-12-06 02:00:00 9.6 4 Noroeste 5 Noroeste 0 -- -- 86
2019-12-06 01:00:00 9.7 2 Sur 3 Sur 0 -- -- 83
2019-12-06 00:00:00 9.9 2 Este 15 Nordeste 0 -- -- 84
2019-12-05 23:00:00 10.1 6 Nordeste 17 Nordeste 0 -- -- 86
2019-12-05 22:00:00 10.3 3 Norte 5 Este 0 -- -- 88
2019-12-05 21:00:00 10.5 3 Este 9 Este 0 -- -- 84
2019-12-05 20:00:00 11.2 3 Sudeste 12 Nordeste 0 -- -- 79
2019-12-05 19:00:00 11.5 9 Nordeste 15 Nordeste 0 -- -- 77
2019-12-05 18:00:00 11.8 6 Este 19 Este 0 -- -- 75
2019-12-05 17:00:00 12.7 12 Este 21 Este 0 -- -- 73
2019-12-05 16:00:00 13.3 13 Este 20 Este 0 -- -- 69
2019-12-05 15:00:00 13.8 11 Este 20 Este 0 -- -- 68
2019-12-05 14:00:00 15 11 Este 22 Este 0 -- -- 62
2019-12-05 13:00:00 14.1 10 Este 16 Este 0 -- -- 67
2019-12-05 12:00:00 11.6 3 Este 11 Sudeste 0 -- -- 75
2019-12-05 11:00:00 10.7 2 Sur 5 Sur 0 -- -- 79
2019-12-05 10:00:00 8.7 0 Calma 6 Norte 0 -- -- 85
2019-12-05 09:00:00 6.2 6 Noroeste 8 Noroeste 0 -- -- 90
2019-12-05 08:00:00 6.2 7 Norte 12 Noroeste 0 -- -- 89
2019-12-05 07:00:00 6.5 4 Noroeste 8 Oeste 0 -- -- 87
2019-12-05 06:00:00 6.2 2 Oeste 12 Noroeste 0 -- -- 88
2019-12-05 05:00:00 6.3 5 Noroeste 9 Norte 0 -- -- 88
2019-12-05 04:00:00 6.9 7 Noroeste 15 Noroeste 0 -- -- 86
2019-12-05 03:00:00 7.5 4 Noroeste 12 Oeste 0 -- -- 84
2019-12-05 02:00:00 8.3 6 Oeste 15 Oeste 0 -- -- 82
2019-12-05 01:00:00 7.9 2 Sur 12 Sudoeste 0 -- -- 83
2019-12-05 00:00:00 7.7 3 Norte 12 Oeste 0 -- -- 83
2019-12-04 23:00:00 8.3 11 Oeste 22 Sudoeste 0 -- -- 81
2019-12-04 22:00:00 8.2 9 Noroeste 13 Noroeste 0 -- -- 81
2019-12-04 21:00:00 9.6 9 Noroeste 31 Sudoeste 0 -- -- 74
2019-12-04 20:00:00 10 15 Sudoeste 33 Oeste 0 -- -- 72
2019-12-04 19:00:00 10.6 19 Oeste 26 Oeste 0 -- -- 70
2019-12-04 18:00:00 11.6 17 Sudoeste 42 Noroeste 0 -- -- 67
2019-12-04 17:00:00 13.8 30 Oeste 46 Oeste 0 -- -- 61
2019-12-04 16:00:00 14.8 33 Oeste 50 Oeste 0 -- -- 57
2019-12-04 15:00:00 14.5 32 Oeste 45 Noroeste 0 -- -- 58
2019-12-04 14:00:00 13.5 23 Oeste 41 Oeste 0 -- -- 63
2019-12-04 13:00:00 12.7 25 Noroeste 54 Oeste 0 -- -- 64
2019-12-04 12:00:00 11.6 35 Oeste 48 Oeste 0 -- -- 69
2019-12-04 11:00:00 11.2 21 Oeste 35 Oeste 0 -- -- 72
2019-12-04 10:00:00 9.9 17 Oeste 27 Oeste 0 -- -- 75
2019-12-04 09:00:00 9.2 24 Oeste 41 Oeste 0 -- -- 75
2019-12-04 08:00:00 8.8 25 Oeste 42 Oeste 0 -- -- 77
2019-12-04 07:00:00 8.3 18 Oeste 27 Oeste 0 -- -- 80
2019-12-04 06:00:00 8.2 15 Oeste 31 Oeste 0 -- -- 80
2019-12-04 05:00:00 8.2 23 Oeste 33 Oeste 0 -- -- 80
2019-12-04 04:00:00 8.8 19 Sudoeste 34 Oeste 0 -- -- 80
2019-12-04 03:00:00 8.3 26 Oeste 33 Oeste 0 -- -- 83
2019-12-04 02:00:00 8.1 16 Oeste 29 Sudoeste 0 -- -- 87
2019-12-04 01:00:00 8 19 Oeste 29 Sudoeste 0.2 -- -- 89
2019-12-04 00:00:00 7.6 18 Oeste 28 Oeste 0 -- -- 93
2019-12-03 23:00:00 7.4 19 Oeste 30 Sudoeste 0.6 -- -- 95
2019-12-03 22:00:00 7.7 21 Oeste 28 Oeste 0.8 -- -- 93
2019-12-03 21:00:00 8 13 Oeste 27 Sudoeste 0.8 -- -- 88
2019-12-03 20:00:00 8.1 6 Oeste 26 Oeste 1.2 -- -- 90
2019-12-03 19:00:00 9.2 4 Oeste 29 Nordeste 0 -- -- 84
2019-12-03 18:00:00 9.1 6 Sudoeste 14 Sur 0.2 -- -- 91
2019-12-03 17:00:00 9.4 5 Sur 24 Nordeste 0 -- -- 89
2019-12-03 16:00:00 9.6 13 Este 36 Nordeste 0.2 -- -- 86
2019-12-03 15:00:00 9.3 26 Nordeste 53 Nordeste 1 -- -- 89
2019-12-03 14:00:00 10.2 35 Nordeste 62 Nordeste 0 -- -- 79
2019-12-03 13:00:00 9.9 33 Nordeste 55 Nordeste 0.2 -- -- 84
2019-12-03 12:00:00 9.9 24 Nordeste 45 Nordeste 0.2 -- -- 86
2019-12-03 11:00:00 9.8 24 Nordeste 41 Nordeste 0 -- -- 84
2019-12-03 10:00:00 9.9 25 Nordeste 41 Nordeste 0 -- -- 84
2019-12-03 09:00:00 9.4 25 Nordeste 41 Nordeste 0.2 -- -- 87
2019-12-03 08:00:00 9.2 19 Nordeste 33 Norte 0.2 -- -- 88
2019-12-03 07:00:00 9 13 Noroeste 44 Nordeste 5 -- -- 91
2019-12-03 06:00:00 9.5 18 Nordeste 44 Nordeste 1.8 -- -- 88
2019-12-03 05:00:00 9.8 4 Sudoeste 37 Nordeste 0.2 -- -- 87
2019-12-03 04:00:00 10.2 27 Nordeste 44 Nordeste 0.2 -- -- 86
2019-12-03 03:00:00 10.5 27 Nordeste 50 Nordeste 0 -- -- 87
2019-12-03 02:00:00 10.4 27 Nordeste 46 Nordeste 0.6 -- -- 90
2019-12-03 01:00:00 10.3 22 Nordeste 37 Nordeste 3.4 -- -- 94
2019-12-03 00:00:00 10.2 2 Oeste 7 Sudoeste 8.2 -- -- 95
2019-12-02 23:00:00 10.5 3 Este 18 Este 2 -- -- 94
2019-12-02 22:00:00 10.5 6 Este 25 Nordeste 0.2 -- -- 91
2019-12-02 21:00:00 10.3 14 Nordeste 31 Nordeste 0.4 -- -- 93
2019-12-02 20:00:00 10.5 17 Nordeste 27 Nordeste 0.2 -- -- 92
2019-12-02 19:00:00 10.6 0 Calma 6 Sudoeste 0.4 -- -- 92
2019-12-02 18:00:00 10.9 2 Sur 15 Este 0 -- -- 89
2019-12-02 17:00:00 11.3 7 Este 16 Nordeste 0.2 -- -- 90
2019-12-02 16:00:00 11.6 4 Este 23 Nordeste 0 -- -- 92
2019-12-02 15:00:00 10.9 12 Este 25 Este 2.2 -- -- 93
2019-12-02 14:00:00 11 12 Este 23 Este 1 -- -- 92
2019-12-02 13:00:00 11.1 6 Sudeste 13 Este 1.2 -- -- 94
2019-12-02 12:00:00 10.9 5 Nordeste 11 Nordeste 1.2 -- -- 90
2019-12-02 11:00:00 11.2 3 Sudeste 8 Este 0.2 -- -- 87
2019-12-02 10:00:00 10.9 0 Calma 5 Noroeste 0 -- -- 88
2019-12-02 09:00:00 10 3 Norte 4 Sur 0 -- -- 89
2019-12-02 08:00:00 9.9 3 Sudoeste 5 Sudoeste 0 -- -- 87
2019-12-02 07:00:00 9.9 0 Calma 4 Sudoeste 0 -- -- 85
2019-12-02 06:00:00 10.6 0 Calma 4 Sudeste 0 -- -- 83
2019-12-02 05:00:00 10.6 2 Sudeste 5 Nordeste 0 -- -- 84
2019-12-02 04:00:00 10.8 2 Norte 5 Norte 0 -- -- 82
2019-12-02 03:00:00 10.6 4 Noroeste 9 Nordeste 0 -- -- 80
2019-12-02 02:00:00 10.9 4 Nordeste 8 Este 0 -- -- 79
2019-12-02 01:00:00 10.9 3 Sudeste 5 Nordeste 0 -- -- 64
2019-12-02 00:00:00 10.4 0 Calma 6 Norte 0 -- -- 65
2019-12-01 23:00:00 10.6 4 Noroeste 12 Sudoeste 0 -- -- 61
2019-12-01 22:00:00 11 5 Norte 8 Norte 0 -- -- 67
2019-12-01 21:00:00 10.3 5 Noroeste 15 Norte 0 -- -- 59
2019-12-01 20:00:00 10.7 9 Norte 10 Norte 0 -- -- 57
2019-12-01 19:00:00 11.4 5 Norte 9 Noroeste 0 -- -- 55
2019-12-01 18:00:00 13.8 9 Noroeste 14 Noroeste 0 -- -- 45
2019-12-01 17:00:00 16.2 9 Oeste 28 Sudoeste 0 -- -- 42
2019-12-01 16:00:00 19.5 19 Sudoeste 29 Sudoeste 0 -- -- 36
2019-12-01 15:00:00 20.8 8 Oeste 21 Oeste 0 -- -- 35
2019-12-01 14:00:00 19.7 11 Oeste 28 Oeste 0 -- -- 37
2019-12-01 13:00:00 18.7 21 Oeste 32 Oeste 0 -- -- 40
2019-12-01 12:00:00 17.6 22 Oeste 34 Oeste 0 -- -- 46
2019-12-01 11:00:00 16.7 10 Oeste 27 Oeste 0 -- -- 59
2019-12-01 10:00:00 14.4 20 Oeste 32 Oeste 0 -- -- 64
2019-12-01 09:00:00 13.3 18 Oeste 28 Oeste 0 -- -- 69
2019-12-01 08:00:00 13.2 15 Oeste 36 Oeste 0 -- -- 70
2019-12-01 07:00:00 12.7 21 Oeste 39 Oeste 0 -- -- 71
2019-12-01 06:00:00 12.8 26 Oeste 34 Oeste 0 -- -- 70
2019-12-01 05:00:00 12.6 13 Oeste 41 Oeste 0 -- -- 70
2019-12-01 04:00:00 12.4 25 Oeste 36 Oeste 0 -- -- 71
2019-12-01 03:00:00 12.3 24 Oeste 40 Sudoeste 0 -- -- 70
2019-12-01 02:00:00 13 21 Oeste 44 Oeste 0 -- -- 67
2019-12-01 01:00:00 13.3 29 Oeste 42 Oeste 0 -- -- 69
2019-12-01 00:00:00 12.8 21 Sudoeste 30 Oeste 0 -- -- 70
2019-11-30 23:00:00 14.3 23 Oeste 37 Sudoeste 0 -- -- 61
2019-11-30 22:00:00 13.2 14 Sudoeste 22 Sudoeste 0 -- -- 66
2019-11-30 21:00:00 12.2 12 Oeste 18 Oeste 0 -- -- 79
2019-11-30 20:00:00 12.8 8 Noroeste 10 Noroeste 0 -- -- 79
2019-11-30 19:00:00 14.4 4 Noroeste 5 Noroeste 0 -- -- 73
2019-11-30 18:00:00 16.6 0 Calma 10 Sudeste 0 -- -- 64
2019-11-30 17:00:00 19.7 6 Sudeste 14 Sudeste 0 -- -- 57
2019-11-30 16:00:00 21.5 8 Sudeste 14 Sudeste 0 -- -- 49
2019-11-30 15:00:00 21.7 6 Sudeste 13 Sudeste 0 -- -- 49
2019-11-30 14:00:00 21.5 4 Sudeste 10 Sur 0 -- -- 47
2019-11-30 13:00:00 20.4 5 Sur 9 Sur 0 -- -- 49
2019-11-30 12:00:00 18.6 3 Sur 7 Oeste 0 -- -- 55
2019-11-30 11:00:00 16.2 4 Oeste 8 Sudoeste 0 -- -- 64
2019-11-30 10:00:00 13 3 Sudoeste 8 Norte 0 -- -- 78
2019-11-30 09:00:00 10.2 6 Noroeste 11 Norte 0 -- -- 84
2019-11-30 08:00:00 9.8 9 Norte 12 Noroeste 0 -- -- 84
2019-11-30 07:00:00 10.1 6 Noroeste 9 Noroeste 0 -- -- 83
2019-11-30 06:00:00 10.6 8 Norte 10 Noroeste 0 -- -- 82
2019-11-30 05:00:00 10.6 5 Norte 10 Noroeste 0 -- -- 81
2019-11-30 04:00:00 10.9 9 Noroeste 10 Noroeste 0 -- -- 81
2019-11-30 03:00:00 10.8 7 Noroeste 12 Noroeste 0 -- -- 80
2019-11-30 02:00:00 10.9 8 Noroeste 9 Noroeste 0 -- -- 79
2019-11-30 01:00:00 10.9 5 Oeste 13 Noroeste 0 -- -- 79
2019-11-30 00:00:00 11.8 9 Noroeste 11 Noroeste 0 -- -- 78
2019-11-29 23:00:00 11.7 6 Norte 12 Noroeste 0 -- -- 78
2019-11-29 22:00:00 12.4 9 Noroeste 12 Noroeste 0 -- -- 76
2019-11-29 21:00:00 13.1 6 Noroeste 9 Noroeste 0 -- -- 69
2019-11-29 20:00:00 13.5 7 Noroeste 9 Nordeste 0 -- -- 68
2019-11-29 19:00:00 14.2 8 Este 15 Este 0 -- -- 58
2019-11-29 18:00:00 16.9 7 Este 13 Este 0 -- -- 55
2019-11-29 17:00:00 20.1 10 Este 17 Este 0 -- -- 51
2019-11-29 16:00:00 22.9 6 Sudeste 13 Sudeste 0 -- -- 44
2019-11-29 15:00:00 22.2 5 Este 12 Sudoeste 0 -- -- 44
2019-11-29 14:00:00 22.3 6 Sur 13 Sudoeste 0 -- -- 44
2019-11-29 13:00:00 21 9 Sudoeste 22 Sudoeste 0 -- -- 48
2019-11-29 12:00:00 19.9 9 Sudoeste 18 Sudoeste 0 -- -- 50
2019-11-29 11:00:00 17.5 6 Nordeste 39 Oeste 0 -- -- 52
2019-11-29 10:00:00 14.9 29 Oeste 49 Oeste 0 -- -- 59
2019-11-29 09:00:00 12.9 27 Oeste 48 Oeste 0 -- -- 64
2019-11-29 08:00:00 11.1 7 Sudoeste 29 Oeste 0 -- -- 69
2019-11-29 07:00:00 10.2 4 Sur 18 Oeste 0 -- -- 72
2019-11-29 06:00:00 9.9 4 Nordeste 14 Noroeste 0 -- -- 73
2019-11-29 05:00:00 10.7 13 Noroeste 25 Oeste 0 -- -- 69
2019-11-29 04:00:00 11.3 17 Oeste 34 Oeste 0 -- -- 68
2019-11-29 03:00:00 11.1 13 Sudoeste 32 Oeste 0 -- -- 71
2019-11-29 02:00:00 11.3 14 Oeste 31 Oeste 0 -- -- 70
2019-11-29 01:00:00 11.4 19 Sudoeste 31 Oeste 0 -- -- 72
2019-11-29 00:00:00 11.7 22 Oeste 37 Oeste 0 -- -- 70
2019-11-28 23:00:00 11.8 24 Oeste 31 Oeste 0 -- -- 72
2019-11-28 22:00:00 11.9 22 Oeste 28 Sudoeste 0 -- -- 73
2019-11-28 21:00:00 12.1 16 Oeste 24 Sudoeste 0 -- -- 75
2019-11-28 20:00:00 12.5 13 Sudoeste 21 Oeste 0 -- -- 75
2019-11-28 19:00:00 13.9 7 Noroeste 10 Noroeste 0 -- -- 73
2019-11-28 18:00:00 15.8 3 Sudeste 13 Este 0 -- -- 64
2019-11-28 17:00:00 17.6 9 Este 23 Este 0 -- -- 60
2019-11-28 16:00:00 21.5 10 Sudeste 16 Sudoeste 0 -- -- 47
2019-11-28 15:00:00 22.8 6 Sur 17 Sudoeste 0 -- -- 40
2019-11-28 14:00:00 21.2 12 Sudoeste 27 Sudoeste 0 -- -- 46
2019-11-28 13:00:00 18.9 23 Sudoeste 32 Sudoeste 0 -- -- 51
2019-11-28 12:00:00 17.5 25 Sudoeste 34 Sudoeste 0 -- -- 55
2019-11-28 11:00:00 15.6 15 Sudoeste 26 Sudoeste 0 -- -- 59
2019-11-28 10:00:00 13.6 13 Sudoeste 22 Sudoeste 0 -- -- 64
2019-11-28 09:00:00 10.5 6 Oeste 43 Oeste 0 -- -- 74
2019-11-28 08:00:00 10.8 22 Oeste 40 Sudoeste 0 -- -- 71
2019-11-28 07:00:00 11.3 22 Sudoeste 47 Sudoeste 0 -- -- 69
2019-11-28 06:00:00 11.5 27 Sudoeste 37 Sudoeste 0 -- -- 68
2019-11-28 05:00:00 12.5 19 Oeste 37 Oeste 0 -- -- 63
2019-11-28 04:00:00 12.6 24 Oeste 49 Oeste 0 -- -- 63
2019-11-28 03:00:00 12.8 26 Oeste 45 Oeste 0 -- -- 62
2019-11-28 02:00:00 12.6 30 Oeste 39 Oeste 0 -- -- 63
2019-11-28 01:00:00 13 24 Oeste 38 Oeste 0 -- -- 61
2019-11-28 00:00:00 12.5 17 Oeste 30 Oeste 0 -- -- 63
2019-11-27 23:00:00 12.9 15 Oeste 38 Oeste 0 -- -- 61
2019-11-27 22:00:00 13.4 28 Oeste 49 Oeste 0 -- -- 60
2019-11-27 21:00:00 13.7 31 Oeste 51 Oeste 0 -- -- 59
2019-11-27 20:00:00 14.1 22 Oeste 45 Oeste 0 -- -- 62
2019-11-27 19:00:00 14.6 28 Oeste 41 Oeste 0 -- -- 61
2019-11-27 18:00:00 15.7 24 Oeste 45 Oeste 0 -- -- 57
2019-11-27 17:00:00 18.1 37 Oeste 55 Oeste 0 -- -- 50
2019-11-27 16:00:00 19.8 31 Oeste 53 Oeste 0 -- -- 47
2019-11-27 15:00:00 20.3 32 Oeste 56 Oeste 0 -- -- 46
2019-11-27 14:00:00 20.3 34 Oeste 52 Oeste 0 -- -- 45
2019-11-27 06:00:00 -- -- -- -- -- -- -- -- --
2019-11-27 05:00:00 16.1 10 Noroeste 36 Noroeste 0 -- -- 67
2019-11-27 04:00:00 15.6 24 Noroeste 36 Noroeste 0 -- -- 67
2019-11-27 03:00:00 15.5 23 Noroeste 48 Oeste 0 -- -- 66
2019-11-27 02:00:00 15.5 24 Oeste 39 Oeste 0 -- -- 61
2019-11-27 01:00:00 15.6 28 Oeste 58 Oeste 0 -- -- 59
2019-11-27 00:00:00 16 38 Oeste 53 Oeste 0 -- -- 58
2019-11-26 23:00:00 16.1 26 Oeste 51 Oeste 0 -- -- 61
2019-11-26 22:00:00 16.1 26 Oeste 40 Oeste 0 -- -- 63
2019-11-26 21:00:00 15.8 17 Oeste 38 Oeste 0 -- -- 68
2019-11-26 20:00:00 16.3 18 Oeste 29 Sudoeste 0 -- -- 68
2019-11-26 19:00:00 16.8 12 Oeste 26 Oeste 0 -- -- 68
2019-11-26 18:00:00 17.7 8 Sudoeste 27 Oeste 0 -- -- 66
2019-11-26 17:00:00 19 15 Oeste 36 Oeste 0 -- -- 60
2019-11-26 16:00:00 20.4 18 Oeste 30 Oeste 0 -- -- 53
2019-11-26 15:00:00 22.9 19 Oeste 36 Oeste 0 -- -- 47
2019-11-26 14:00:00 21.2 22 Oeste 41 Oeste 0 -- -- 52
2019-11-26 13:00:00 20.4 30 Oeste 42 Oeste 0 -- -- 51
2019-11-26 12:00:00 18.5 27 Oeste 48 Oeste 0 -- -- 56
2019-11-26 11:00:00 16.8 28 Oeste 48 Oeste 0 -- -- 59
2019-11-26 10:00:00 14.7 7 Noroeste 22 Sudoeste 0 -- -- 68
2019-11-26 09:00:00 12.9 3 Norte 35 Oeste 0 -- -- 74
2019-11-26 08:00:00 13.6 26 Oeste 40 Oeste 0 -- -- 72
2019-11-26 07:00:00 13.9 26 Oeste 40 Oeste 0 -- -- 70
2019-11-26 06:00:00 13.9 21 Oeste 39 Oeste 0 -- -- 73
2019-11-26 05:00:00 14.3 27 Oeste 44 Oeste 0 -- -- 72
2019-11-26 04:00:00 13.2 22 Sudoeste 28 Sudoeste 0 -- -- 81
2019-11-26 03:00:00 13.2 11 Oeste 28 Oeste 0 -- -- 82
2019-11-26 02:00:00 14.5 23 Oeste 34 Oeste 0 -- -- 78
2019-11-26 01:00:00 14.4 17 Oeste 37 Oeste 0 -- -- 78
2019-11-26 00:00:00 15.7 26 Oeste 58 Oeste 0 -- -- 72
2019-11-25 23:00:00 16.4 22 Sudoeste 39 Sudoeste 0 -- -- 68
2019-11-25 22:00:00 16.6 15 Oeste 53 Oeste 0 -- -- 66
2019-11-25 21:00:00 16.8 35 Oeste 54 Oeste 0 -- -- 65
2019-11-25 20:00:00 16.3 32 Oeste 52 Oeste 0 -- -- 68
2019-11-25 19:00:00 16.2 28 Oeste 46 Oeste 0 -- -- 69
2019-11-25 18:00:00 17 27 Oeste 51 Oeste 0 -- -- 65
2019-11-25 17:00:00 19.4 32 Oeste 46 Oeste 0 -- -- 59
2019-11-25 16:00:00 18.2 14 Oeste 57 Oeste 0 -- -- 63
2019-11-25 15:00:00 18.1 30 Oeste 58 Oeste 0 -- -- 62
2019-11-25 14:00:00 18.4 35 Oeste 51 Oeste 0 -- -- 60
2019-11-25 13:00:00 19.8 14 Oeste 34 Oeste 0 -- -- 57
2019-11-25 12:00:00 17.7 21 Oeste 33 Sudoeste 0 -- -- 61
2019-11-25 11:00:00 14.5 4 Nordeste 12 Sudoeste 0 -- -- 69
2019-11-25 10:00:00 13.5 8 Sudoeste 36 Oeste 0 -- -- 69
2019-11-25 09:00:00 13.1 10 Oeste 24 Oeste 0 -- -- 71
2019-11-25 08:00:00 11.9 25 Oeste 33 Oeste 0 -- -- 70
2019-11-25 07:00:00 11.6 24 Oeste 36 Oeste 0 -- -- 69
2019-11-25 06:00:00 11.7 7 Oeste 40 Oeste 0 -- -- 68
2019-11-25 05:00:00 11.3 34 Oeste 49 Sudoeste 0 -- -- 67
2019-11-25 04:00:00 11.2 44 Oeste 59 Oeste 0 -- -- 66
2019-11-25 03:00:00 11.4 39 Oeste 72 Oeste 0 -- -- 65
2019-11-25 02:00:00 11.8 48 Oeste 68 Oeste 0 -- -- 62
2019-11-25 01:00:00 11.3 41 Oeste 67 Oeste 0 -- -- 63
2019-11-25 00:00:00 11.2 51 Oeste 76 Oeste 0 -- -- 61
2019-11-24 23:00:00 10.6 35 Oeste 52 Oeste 0 -- -- 65
2019-11-24 22:00:00 10.2 19 Oeste 44 Oeste 0 -- -- 64
2019-11-24 21:00:00 10.3 30 Oeste 52 Oeste 0 -- -- 61
2019-11-24 20:00:00 11 36 Oeste 50 Oeste 0 -- -- 54
2019-11-24 19:00:00 11.4 31 Oeste 46 Oeste 0 -- -- 59
2019-11-24 18:00:00 12.7 24 Oeste 39 Sudoeste 0 -- -- 49
2019-11-24 17:00:00 14.9 31 Oeste 48 Oeste 0 -- -- 40
2019-11-24 16:00:00 15.5 38 Oeste 60 Oeste 0 -- -- 35
2019-11-24 15:00:00 14 39 Oeste 53 Oeste 0 -- -- 39
2019-11-24 14:00:00 14.6 33 Oeste 58 Oeste 0 -- -- 43
2019-11-24 13:00:00 13.9 31 Oeste 58 Sudoeste 0 -- -- 47
2019-11-24 12:00:00 12.8 42 Oeste 62 Sudoeste 0 -- -- 50
2019-11-24 11:00:00 12 38 Oeste 56 Sudoeste 0 -- -- 55
2019-11-24 10:00:00 10.7 31 Oeste 59 Oeste 0 -- -- 57
2019-11-24 09:00:00 9.1 36 Oeste 51 Oeste 0 -- -- 62
2019-11-24 08:00:00 8.7 18 Oeste 56 Oeste 0 -- -- 63
2019-11-24 07:00:00 9.3 29 Oeste 62 Sudoeste 0 -- -- 59
2019-11-24 06:00:00 9.4 26 Oeste 45 Oeste 0 -- -- 58
2019-11-24 05:00:00 9.3 29 Oeste 47 Oeste 0 -- -- 61
2019-11-24 04:00:00 8.7 17 Oeste 48 Oeste 0 -- -- 64
2019-11-24 03:00:00 9.6 41 Oeste 68 Oeste 0 -- -- 61
2019-11-24 02:00:00 9.6 39 Oeste 57 Oeste 0 -- -- 61
2019-11-24 01:00:00 9.7 25 Oeste 56 Oeste 0 -- -- 61
2019-11-24 00:00:00 9.6 23 Sudoeste 34 Sudoeste 0 -- -- 61
2019-11-23 23:00:00 10 13 Sur 53 Oeste 0 -- -- 59
2019-11-23 22:00:00 10.8 40 Oeste 68 Sudoeste 0 -- -- 57
2019-11-23 21:00:00 10.6 38 Oeste 61 Oeste 0 -- -- 58
2019-11-23 20:00:00 10.7 44 Oeste 63 Oeste 0 -- -- 59
2019-11-23 19:00:00 10.8 33 Oeste 60 Oeste 0 -- -- 58
2019-11-23 18:00:00 11.5 46 Oeste 78 Oeste 0 -- -- 52
2019-11-23 17:00:00 13.7 14 Oeste 64 Oeste 0 -- -- 48
2019-11-23 16:00:00 13.7 45 Oeste 72 Oeste 0 -- -- 47
2019-11-23 15:00:00 14.3 44 Oeste 80 Oeste 0 -- -- 46
2019-11-23 14:00:00 14.3 49 Oeste 82 Oeste 0 -- -- 44
2019-11-23 13:00:00 13.7 59 Oeste 96 Oeste 0 -- -- 47
2019-11-23 12:00:00 12.9 53 Oeste 94 Oeste 0 -- -- 52
2019-11-23 11:00:00 12.2 47 Oeste 74 Oeste 0 -- -- 57
2019-11-23 10:00:00 11.3 36 Oeste 95 Oeste 0 -- -- 61
2019-11-23 09:00:00 10.2 60 Oeste 80 Oeste 0.2 -- -- 66
2019-11-23 08:00:00 9 33 Oeste 74 Oeste 0 -- -- 75
2019-11-23 07:00:00 8.6 48 Oeste 87 Oeste 0 -- -- 80
2019-11-23 06:00:00 10.5 55 Oeste 101 Oeste 0 -- -- 69
2019-11-23 05:00:00 12.7 65 Oeste 107 Oeste 0 -- -- 52
2019-11-23 04:00:00 12.6 59 Oeste 90 Oeste 0 -- -- 54
2019-11-23 03:00:00 12.7 48 Oeste 84 Oeste 0 -- -- 56
2019-11-23 02:00:00 13.1 60 Oeste 91 Sudoeste 0 -- -- 57
2019-11-23 01:00:00 13 41 Oeste 89 Oeste 0 -- -- 58
2019-11-23 00:00:00 12.6 47 Oeste 68 Oeste 0 -- -- 62
2019-11-22 23:00:00 10.7 5 Sudoeste 15 Sudoeste 0.2 -- -- 96
2019-11-22 22:00:00 11.5 4 Nordeste 9 Norte 1.2 -- -- 95
2019-11-22 21:00:00 11.8 2 Este 9 Oeste 3.2 -- -- 95
2019-11-22 20:00:00 11.7 0 Calma 12 Nordeste 2.8 -- -- 94
2019-11-22 19:00:00 11.9 6 Norte 17 Nordeste 1.2 -- -- 93
2019-11-22 18:00:00 12.2 12 Nordeste 23 Este 0.2 -- -- 90
2019-11-22 17:00:00 13.7 7 Este 13 Este 0 -- -- 82
2019-11-22 16:00:00 14.1 6 Este 18 Sudeste 0 -- -- 80
2019-11-22 15:00:00 15.5 10 Sudeste 28 Sudeste 0 -- -- 73
2019-11-22 14:00:00 16.4 8 Sudeste 19 Sudeste 0 -- -- 69
2019-11-22 13:00:00 14.3 5 Este 13 Nordeste 0 -- -- 75
2019-11-22 12:00:00 13.4 6 Sur 11 Noroeste 0.2 -- -- 85
2019-11-22 11:00:00 12.1 7 Noroeste 10 Noroeste 0 -- -- 85
2019-11-22 10:00:00 11.2 0 Calma 8 Noroeste 0 -- -- 85
2019-11-22 09:00:00 10.6 5 Oeste 12 Norte 0 -- -- 84
2019-11-22 08:00:00 10.8 9 Norte 13 Norte 0 -- -- 83
2019-11-22 07:00:00 10.2 8 Norte 9 Norte 0 -- -- 86
2019-11-22 06:00:00 9.6 4 Norte 6 Norte 0 -- -- 86
2019-11-22 05:00:00 9.6 0 Calma 6 Nordeste 0 -- -- 86
2019-11-22 04:00:00 9.4 4 Noroeste 12 Sur 0 -- -- 87
2019-11-22 03:00:00 9.9 6 Noroeste 12 Noroeste 0 -- -- 85
2019-11-22 02:00:00 9.5 6 Noroeste 10 Noroeste 0 -- -- 86
2019-11-22 01:00:00 10.2 4 Norte 9 Noroeste 0 -- -- 85
2019-11-22 00:00:00 10.3 4 Norte 8 Oeste 0 -- -- 82
2019-11-21 23:00:00 10.9 3 Nordeste 8 Noroeste 0 -- -- 79
2019-11-21 22:00:00 11.2 4 Noroeste 13 Sudoeste 0 -- -- 78
2019-11-21 21:00:00 11.5 4 Sudoeste 9 Noroeste 0 -- -- 75
2019-11-21 20:00:00 11.9 3 Noroeste 5 Sudoeste 0 -- -- 70
2019-11-21 19:00:00 12.4 3 Norte 11 Nordeste 0 -- -- 66
2019-11-21 18:00:00 13.2 7 Este 17 Este 0 -- -- 64
2019-11-21 17:00:00 15 5 Sudeste 9 Sudeste 0 -- -- 59
2019-11-21 16:00:00 15.8 5 Sudoeste 10 Sudoeste 0 -- -- 59
2019-11-21 15:00:00 15.8 3 Sudeste 10 Sudeste 0 -- -- 57
2019-11-21 14:00:00 15.3 5 Sur 9 Sur 0 -- -- 59
2019-11-21 13:00:00 14.9 4 Sur 9 Sudeste 0 -- -- 61
2019-11-21 12:00:00 13.6 2 Sudoeste 6 Sudoeste 0 -- -- 65
2019-11-21 11:00:00 13.1 3 Sur 9 Sudoeste 0 -- -- 65
2019-11-21 10:00:00 10.7 3 Sur 10 Sudoeste 0 -- -- 73
2019-11-21 09:00:00 9.1 0 Calma 10 Noroeste 0 -- -- 76
2019-11-21 08:00:00 -- -- -- -- -- -- -- -- --
2019-11-21 07:00:00 -- -- -- -- -- -- -- -- --
2019-11-21 06:00:00 -- -- -- -- -- -- -- -- --
2019-11-21 05:00:00 -- -- -- -- -- -- -- -- --
2019-11-21 04:00:00 -- -- -- -- -- -- -- -- --
2019-11-21 03:00:00 -- -- -- -- -- -- -- -- --
2019-11-21 02:00:00 -- -- -- -- -- -- -- -- --
2019-11-21 01:00:00 -- -- -- -- -- -- -- -- --
2019-11-21 00:00:00 -- -- -- -- -- -- -- -- --
2019-11-20 23:00:00 -- -- -- -- -- -- -- -- --
2019-11-20 22:00:00 -- -- -- -- -- -- -- -- --
2019-11-20 21:00:00 -- -- -- -- -- -- -- -- --
2019-11-20 20:00:00 -- -- -- -- -- -- -- -- --
2019-11-20 19:00:00 11.2 0 Calma 8 Sudeste 0 -- -- 76
2019-11-20 18:00:00 12.1 0 Calma 9 Este 0 -- -- 72
2019-11-20 17:00:00 12.8 8 Este 13 Este 0 -- -- 71
2019-11-20 16:00:00 13.8 8 Este 13 Este 0 -- -- 59
2019-11-20 15:00:00 15.2 8 Este 17 Sudeste 0 -- -- 47
2019-11-20 14:00:00 16.8 6 Sur 15 Sudoeste 0 -- -- 43
2019-11-20 13:00:00 15.2 4 Sur 12 Sudeste 0 -- -- 44
2019-11-20 12:00:00 14.1 5 Sudeste 11 Sur 0 -- -- 45
2019-11-20 11:00:00 12.3 4 Sur 8 Sudoeste 0 -- -- 56
2019-11-20 10:00:00 8.5 3 Sudoeste 6 Sur 0 -- -- 70
2019-11-20 09:00:00 4.9 4 Noroeste 10 Noroeste 0 -- -- 79
2019-11-20 08:00:00 4.3 6 Noroeste 13 Noroeste 0 -- -- 76
2019-11-20 07:00:00 4.5 4 Norte 9 Noroeste 0 -- -- 75
2019-11-20 06:00:00 4.6 6 Noroeste 12 Noroeste 0 -- -- 76
2019-11-20 05:00:00 5.1 4 Noroeste 15 Noroeste 0 -- -- 72
2019-11-20 04:00:00 6.5 12 Noroeste 14 Noroeste 0 -- -- 68
2019-11-20 03:00:00 7 6 Noroeste 9 Noroeste 0 -- -- 66
2019-11-20 02:00:00 6.8 0 Calma 11 Noroeste 0 -- -- 67
2019-11-20 01:00:00 6.9 9 Norte 10 Noroeste 0 -- -- 66
2019-11-20 00:00:00 6.4 0 Calma 10 Noroeste 0 -- -- 75
2019-11-19 23:00:00 6.6 9 Noroeste 14 Noroeste 0 -- -- 79
2019-11-19 22:00:00 6.8 7 Noroeste 12 Noroeste 0 -- -- 82
2019-11-19 21:00:00 7.7 8 Noroeste 11 Noroeste 0 -- -- 80
2019-11-19 20:00:00 8.7 5 Norte 9 Norte 0 -- -- 78
2019-11-19 19:00:00 9.2 5 Norte 15 Nordeste 0 -- -- 76
2019-11-19 18:00:00 10.9 11 Este 22 Este 0 -- -- 71
2019-11-19 17:00:00 12.8 12 Este 25 Este 0 -- -- 61
2019-11-19 16:00:00 15.5 8 Sur 19 Sur 0 -- -- 47
2019-11-19 15:00:00 16.8 10 Sudoeste 27 Sudoeste 0 -- -- 32
2019-11-19 14:00:00 16.7 14 Sudoeste 25 Oeste 0 -- -- 34
2019-11-19 13:00:00 15.4 16 Oeste 27 Sudoeste 0 -- -- 40
2019-11-19 12:00:00 13 16 Sudoeste 28 Sudoeste 0 -- -- 47
2019-11-19 11:00:00 11.3 13 Sudoeste 18 Sudoeste 0 -- -- 55
2019-11-19 10:00:00 9.4 13 Oeste 21 Sudoeste 0 -- -- 61
2019-11-19 09:00:00 6.8 11 Noroeste 21 Oeste 0 -- -- 71
2019-11-19 08:00:00 5.2 15 Noroeste 22 Oeste 0 -- -- 76
2019-11-19 07:00:00 5.6 14 Oeste 19 Oeste 0 -- -- 75
2019-11-19 06:00:00 5.6 4 Noroeste 18 Noroeste 0 -- -- 73
2019-11-19 05:00:00 7 20 Oeste 30 Oeste 0 -- -- 67
2019-11-19 04:00:00 6.4 16 Oeste 22 Oeste 0 -- -- 69
2019-11-19 03:00:00 6.5 14 Noroeste 19 Noroeste 0 -- -- 68
2019-11-19 02:00:00 6.6 12 Noroeste 18 Oeste 0 -- -- 67
2019-11-19 01:00:00 7.1 14 Noroeste 19 Noroeste 0 -- -- 65
2019-11-19 00:00:00 7.5 12 Noroeste 19 Oeste 0 -- -- 62
2019-11-18 23:00:00 8.6 18 Oeste 27 Oeste 0 -- -- 56
2019-11-18 22:00:00 8.4 11 Oeste 28 Oeste 0 -- -- 56
2019-11-18 21:00:00 9.1 21 Oeste 42 Oeste 0 -- -- 57
2019-11-18 20:00:00 9.5 24 Oeste 37 Oeste 0 -- -- 57
2019-11-18 19:00:00 10 20 Oeste 35 Oeste 0 -- -- 56
2019-11-18 18:00:00 11.2 26 Oeste 41 Oeste 0 -- -- 52
2019-11-18 17:00:00 13.7 32 Oeste 54 Oeste 0 -- -- 46
2019-11-18 16:00:00 14.8 32 Oeste 46 Oeste 0 -- -- 46
2019-11-18 15:00:00 14.9 34 Oeste 52 Oeste 0 -- -- 47
2019-11-18 14:00:00 14.7 38 Oeste 52 Oeste 0 -- -- 48
2019-11-18 13:00:00 14.6 31 Sudoeste 46 Oeste 0 -- -- 49
2019-11-18 12:00:00 13 36 Oeste 48 Oeste 0 -- -- 52
2019-11-18 11:00:00 12.2 21 Oeste 45 Noroeste 0 -- -- 56
2019-11-18 10:00:00 10.2 28 Oeste 40 Oeste 0 -- -- 67
2019-11-18 09:00:00 8 13 Oeste 31 Oeste 0 -- -- 80
2019-11-18 08:00:00 7.2 17 Oeste 53 Oeste 0 -- -- 81
2019-11-18 07:00:00 7.5 39 Oeste 52 Oeste 0.4 -- -- 82
2019-11-18 06:00:00 10 17 Oeste 38 Noroeste 0.2 -- -- 78
2019-11-18 05:00:00 10.7 11 Sudoeste 19 Noroeste 0 -- -- 83
2019-11-18 04:00:00 11.4 13 Oeste 32 Oeste 0.2 -- -- 80
2019-11-18 03:00:00 12.8 6 Oeste 26 Oeste 0 -- -- 71
2019-11-18 02:00:00 13.4 6 Oeste 39 Oeste 0 -- -- 65
2019-11-18 01:00:00 14.6 25 Oeste 51 Oeste 0 -- -- 61
2019-11-18 00:00:00 13.2 12 Oeste 25 Noroeste 0 -- -- 63
2019-11-17 23:00:00 12.8 5 Sudeste 32 Noroeste 0 -- -- 64
2019-11-17 22:00:00 12.7 19 Noroeste 32 Noroeste 0 -- -- 65
2019-11-17 21:00:00 11.7 13 Noroeste 33 Oeste 0 -- -- 68
2019-11-17 20:00:00 11.8 12 Noroeste 29 Noroeste 0 -- -- 68
2019-11-17 19:00:00 12.2 17 Noroeste 36 Oeste 0 -- -- 68
2019-11-17 18:00:00 11.8 17 Noroeste 37 Oeste 0 -- -- 68
2019-11-17 17:00:00 12.6 21 Oeste 49 Oeste 0 -- -- 64
2019-11-17 16:00:00 15.4 29 Oeste 53 Oeste 0 -- -- 51
2019-11-17 15:00:00 15.3 37 Oeste 47 Oeste 0 -- -- 49
2019-11-17 14:00:00 13.2 22 Oeste 35 Oeste 0 -- -- 45
2019-11-17 13:00:00 12.2 25 Oeste 51 Oeste 0 -- -- 43
2019-11-17 12:00:00 12.2 28 Oeste 49 Oeste 0 -- -- 39
2019-11-17 11:00:00 13.1 24 Sudoeste 43 Sudoeste 0 -- -- 36
2019-11-17 10:00:00 10.3 35 Oeste 48 Sudoeste 0 -- -- 44
2019-11-17 09:00:00 8.3 31 Oeste 53 Oeste 0 -- -- 51
2019-11-17 08:00:00 6.8 27 Oeste 57 Oeste 0 -- -- 56
2019-11-17 07:00:00 6.8 38 Oeste 51 Oeste 0 -- -- 55
2019-11-17 06:00:00 4.6 7 Oeste 14 Sudoeste 0 -- -- 62
2019-11-17 05:00:00 5.8 8 Sudoeste 33 Oeste 0 -- -- 55
2019-11-17 04:00:00 6.8 26 Oeste 52 Oeste 0 -- -- 55
2019-11-17 03:00:00 7.7 40 Oeste 54 Oeste 0 -- -- 51
2019-11-17 02:00:00 7.4 29 Oeste 42 Oeste 0 -- -- 52
2019-11-17 01:00:00 7.6 22 Oeste 44 Oeste 0 -- -- 52
2019-11-17 00:00:00 7.5 19 Oeste 39 Oeste 0 -- -- 53
2019-11-16 23:00:00 7.3 12 Oeste 45 Oeste 0 -- -- 54
2019-11-16 22:00:00 7.8 26 Oeste 50 Sudoeste 0 -- -- 52
2019-11-16 21:00:00 7.8 26 Oeste 43 Oeste 0 -- -- 52
2019-11-16 20:00:00 7.8 16 Sudoeste 40 Oeste 0 -- -- 53
2019-11-16 19:00:00 8.6 23 Oeste 32 Oeste 0 -- -- 50
2019-11-16 18:00:00 10.3 24 Oeste 40 Sudoeste 0 -- -- 45
2019-11-16 17:00:00 12.7 34 Oeste 47 Oeste 0 -- -- 36
2019-11-16 16:00:00 14 30 Oeste 44 Oeste 0 -- -- 34
2019-11-16 15:00:00 14.8 28 Oeste 42 Sudoeste 0 -- -- 33
2019-11-16 14:00:00 14.2 27 Oeste 44 Oeste 0 -- -- 35
2019-11-16 13:00:00 13.3 29 Oeste 43 Oeste 0 -- -- 39
2019-11-16 12:00:00 11.5 32 Oeste 55 Oeste 0 -- -- 43
2019-11-16 11:00:00 9.6 32 Oeste 46 Oeste 0 -- -- 51
2019-11-16 10:00:00 7.9 29 Oeste 48 Oeste 0 -- -- 56
2019-11-16 09:00:00 6.1 31 Oeste 44 Oeste 0 -- -- 62
2019-11-16 08:00:00 5.3 14 Sudoeste 35 Oeste 0 -- -- 65
2019-11-16 07:00:00 5.8 28 Oeste 39 Oeste 0 -- -- 63
2019-11-16 06:00:00 5.3 22 Oeste 35 Sudoeste 0 -- -- 66
2019-11-16 05:00:00 5.5 21 Oeste 32 Oeste 0 -- -- 65
2019-11-16 04:00:00 5.3 9 Sudoeste 28 Sudoeste 0 -- -- 66
2019-11-16 03:00:00 6.2 18 Sudoeste 30 Sudoeste 0 -- -- 63
2019-11-16 02:00:00 6.2 21 Oeste 33 Oeste 0 -- -- 63
2019-11-16 01:00:00 6.6 24 Oeste 36 Sudoeste 0 -- -- 61
2019-11-16 00:00:00 6.6 20 Oeste 35 Sudoeste 0 -- -- 62
2019-11-15 23:00:00 5.8 21 Oeste 32 Sudoeste 0 -- -- 64
2019-11-15 22:00:00 5.8 22 Sudoeste 37 Sudoeste 0 -- -- 63
2019-11-15 21:00:00 6 14 Oeste 24 Oeste 0 -- -- 59
2019-11-15 20:00:00 6.3 13 Oeste 24 Oeste 0 -- -- 56
2019-11-15 19:00:00 7.2 16 Oeste 37 Oeste 0 -- -- 50
2019-11-15 18:00:00 8.4 26 Noroeste 37 Oeste 0 -- -- 46
2019-11-15 17:00:00 10.5 27 Oeste 45 Oeste 0 -- -- 42
2019-11-15 16:00:00 11.1 26 Oeste 44 Oeste 0 -- -- 40
2019-11-15 15:00:00 11 26 Oeste 45 Oeste 0 -- -- 41
2019-11-15 14:00:00 10.8 35 Oeste 53 Oeste 0 -- -- 40
2019-11-15 13:00:00 11.8 33 Oeste 53 Oeste 0 -- -- 41
2019-11-15 12:00:00 10.5 35 Noroeste 54 Oeste 0 -- -- 43
2019-11-15 11:00:00 9.9 29 Oeste 45 Oeste 0 -- -- 48
2019-11-15 10:00:00 8.7 29 Oeste 41 Noroeste 0 -- -- 54
2019-11-15 09:00:00 7.5 17 Oeste 34 Oeste 0 -- -- 59
2019-11-15 08:00:00 7.8 21 Oeste 39 Sudoeste 0 -- -- 58
2019-11-15 07:00:00 7.7 9 Noroeste 52 Oeste 0 -- -- 59
2019-11-15 06:00:00 7.8 17 Oeste 54 Oeste 0 -- -- 58
2019-11-15 05:00:00 7.9 33 Oeste 75 Oeste 0 -- -- 58
2019-11-15 04:00:00 8.2 31 Oeste 58 Oeste 0 -- -- 56
2019-11-15 03:00:00 8.4 26 Oeste 68 Oeste 0 -- -- 58
2019-11-15 02:00:00 9 46 Oeste 81 Oeste 0 -- -- 56
2019-11-15 01:00:00 9.2 39 Oeste 78 Oeste 0 -- -- 56
2019-11-15 00:00:00 9.6 42 Oeste 65 Oeste 0 -- -- 53
2019-11-14 23:00:00 9.1 17 Oeste 47 Oeste 0 -- -- 56
2019-11-14 22:00:00 9.4 24 Oeste 55 Oeste 0 -- -- 55
2019-11-14 21:00:00 9.8 30 Oeste 69 Oeste 0 -- -- 52
2019-11-14 20:00:00 10 40 Oeste 68 Noroeste 0 -- -- 52
2019-11-14 19:00:00 10 44 Oeste 72 Oeste 0 -- -- 52
2019-11-14 18:00:00 10 42 Oeste 71 Oeste 0 -- -- 58
2019-11-14 17:00:00 10.7 44 Oeste 69 Oeste 0 -- -- 58
2019-11-14 16:00:00 12.1 44 Oeste 73 Oeste 0 -- -- 58
2019-11-14 15:00:00 13.3 55 Oeste 87 Oeste 0 -- -- 61
2019-11-14 14:00:00 14.4 46 Oeste 74 Oeste 0 -- -- 53
2019-11-14 13:00:00 14.6 42 Oeste 72 Oeste 0 -- -- 49
2019-11-14 12:00:00 15 31 Oeste 68 Oeste 0 -- -- 47
2019-11-14 11:00:00 14.5 33 Oeste 50 Oeste 0 -- -- 45
2019-11-14 10:00:00 13.3 32 Oeste 48 Oeste 0 -- -- 54
2019-11-14 09:00:00 13.2 33 Oeste 52 Oeste 0 -- -- 52
2019-11-14 08:00:00 13.1 15 Noroeste 57 Oeste 0 -- -- 49
2019-11-14 07:00:00 12.5 19 Noroeste 37 Noroeste 0 -- -- 54
2019-11-14 06:00:00 11.6 12 Noroeste 25 Noroeste 0 -- -- 57
2019-11-14 05:00:00 12.1 17 Oeste 39 Noroeste 0 -- -- 63
2019-11-14 04:00:00 13.6 32 Oeste 44 Oeste 0 -- -- 58
2019-11-14 03:00:00 13.5 24 Oeste 42 Oeste 0 -- -- 60
2019-11-14 02:00:00 13.1 19 Oeste 30 Noroeste 0 -- -- 63
2019-11-14 01:00:00 14 26 Noroeste 44 Oeste 0 -- -- 62
2019-11-14 00:00:00 14.9 31 Oeste 51 Oeste 0 -- -- 57
2019-11-13 23:00:00 14.8 21 Oeste 43 Oeste 0 -- -- 58
2019-11-13 22:00:00 14.8 33 Oeste 42 Oeste 0 -- -- 57
2019-11-13 21:00:00 14.3 22 Oeste 40 Oeste 0 -- -- 61
2019-11-13 20:00:00 15 28 Oeste 48 Oeste 0 -- -- 61
2019-11-13 19:00:00 15.9 41 Oeste 54 Oeste 0 -- -- 59
2019-11-13 18:00:00 16.7 20 Sudoeste 65 Oeste 0 -- -- 56
2019-11-13 17:00:00 18.6 40 Oeste 62 Oeste 0 -- -- 49
2019-11-13 16:00:00 19.6 39 Oeste 66 Oeste 0 -- -- 48
2019-11-13 15:00:00 19.9 43 Oeste 68 Oeste 0 -- -- 47
2019-11-13 14:00:00 19.8 45 Oeste 78 Oeste 0 -- -- 48
2019-11-13 13:00:00 19.4 36 Oeste 65 Sudoeste 0 -- -- 52
2019-11-13 12:00:00 18 38 Oeste 67 Oeste 0 -- -- 54
2019-11-13 11:00:00 17.3 35 Oeste 86 Oeste 0 -- -- 56
2019-11-13 10:00:00 15.2 41 Oeste 64 Oeste 0 -- -- 62
2019-11-13 09:00:00 13.6 31 Oeste 52 Oeste 0 -- -- 64
2019-11-13 08:00:00 12.5 25 Oeste 47 Sudoeste 0 -- -- 67
2019-11-13 07:00:00 12.3 34 Oeste 55 Oeste 0 -- -- 68
2019-11-13 06:00:00 12.2 36 Oeste 55 Oeste 0 -- -- 66
2019-11-13 05:00:00 12.1 35 Oeste 63 Oeste 0 -- -- 61
2019-11-13 04:00:00 11.9 22 Oeste 56 Oeste 0 -- -- 57
2019-11-13 03:00:00 12.1 32 Oeste 54 Oeste 0 -- -- 55
2019-11-13 02:00:00 12.3 14 Noroeste 60 Oeste 0 -- -- 54
2019-11-13 01:00:00 12.2 25 Noroeste 40 Oeste 0 -- -- 55
2019-11-13 00:00:00 12.2 17 Oeste 45 Oeste 0 -- -- 54
2019-11-12 23:00:00 11.7 19 Oeste 31 Oeste 0 -- -- 56
2019-11-12 22:00:00 11.9 20 Oeste 45 Oeste 0 -- -- 54
2019-11-12 21:00:00 11.4 17 Sudoeste 28 Oeste 0 -- -- 56
2019-11-12 20:00:00 12.1 18 Oeste 35 Oeste 0 -- -- 53
2019-11-12 19:00:00 12.7 24 Oeste 35 Oeste 0 -- -- 50
2019-11-12 18:00:00 14.2 23 Oeste 46 Oeste 0 -- -- 43
2019-11-12 17:00:00 16.9 31 Oeste 49 Oeste 0 -- -- 35
2019-11-12 16:00:00 17.6 33 Oeste 46 Oeste 0 -- -- 35
2019-11-12 15:00:00 18.4 28 Oeste 49 Oeste 0 -- -- 35
2019-11-12 14:00:00 18.3 32 Oeste 42 Oeste 0 -- -- 35
2019-11-12 13:00:00 17.2 33 Oeste 45 Oeste 0 -- -- 38
2019-11-12 12:00:00 16.3 29 Oeste 43 Oeste 0 -- -- 43
2019-11-12 11:00:00 14.4 31 Oeste 52 Oeste 0 -- -- 51
2019-11-12 10:00:00 12.8 25 Oeste 41 Oeste 0 -- -- 53
2019-11-12 09:00:00 10.5 29 Oeste 40 Oeste 0 -- -- 64
2019-11-12 08:00:00 9.9 19 Oeste 50 Oeste 0 -- -- 66
2019-11-12 07:00:00 10.6 30 Oeste 50 Oeste 0 -- -- 65
2019-11-12 06:00:00 10.6 24 Noroeste 38 Noroeste 0 -- -- 65
2019-11-12 05:00:00 9.9 8 Oeste 23 Oeste 0 -- -- 65
2019-11-12 04:00:00 10.7 20 Oeste 41 Noroeste 0 -- -- 65
2019-11-12 03:00:00 10.9 25 Oeste 43 Oeste 0 -- -- 66
2019-11-12 02:00:00 10.9 23 Oeste 42 Oeste 0 -- -- 69
2019-11-12 01:00:00 10.8 27 Oeste 36 Oeste 0 -- -- 70
2019-11-12 00:00:00 10.8 18 Sudoeste 36 Oeste 0 -- -- 72